Terminal Aerodrome Forecast
Issued by NWS Boston, MA

Home | Current Version | Previous Version | Text Only | Print | Product List | Glossary On
Versions: 1 2 3 4 5 6 7 8 9 10 11 12 13 14 15 16 17 18 19 20 21 22 23
000
FTUS41 KBOX 262322
TAFPVD
TAF
KPVD 262322Z 2700/2724 28010KT P6SM SKC
     FM270800 00000KT P6SM SCT200
     FM271600 15007KT P6SM VCSH BKN100
     FM271800 15008KT P6SM -RA OVC025
     FM272100 13006KT 3SM -RA BR OVC008=

USA.gov is the U.S. government's official web portal to all federal, state and local government web resources and services.